Time;durP1;ratioP1;P1;durP2;ratioP2;P2;SDS_P1;SDS_P2;PMS_P1;PMS_P2;Temp;Humidity;BMP_temperature;BMP_pressure;BME280_temperature;BME280_humidity;BME280_pressure;Samples;Min_cycle;Max_cycle;Signal;HPM_P1;HPM_P2
2022/07/18 12:21:50;;;;;;;1.67;0.30;;;;;;;;;;5126901;27;20206;-62
2022/07/18 12:24:30;;;;;;;3.88;0.40;;;;;;;;;;5111358;28;20096;-63
2022/07/18 12:27:16;;;;;;;1.65;0.43;;;;;;;;;;5110002;28;20476;-62
2022/07/18 12:30:04;;;;;;;2.85;0.40;;;;;;;;;;5110940;28;20103;-63
2022/07/18 12:32:38;;;;;;;2.03;0.50;;;;;;;;;;5075733;28;20073;-63
2022/07/18 12:35:07;;;;;;;2.55;0.45;;;;;;;;;;5107904;28;20030;-62
2022/07/18 12:37:33;;;;;;;2.90;0.50;;;;;;;;;;5106433;28;20032;-64
2022/07/18 12:39:59;;;;;;;2.95;0.40;;;;;;;;;;5108324;28;20036;-64
2022/07/18 12:42:28;;;;;;;1.77;0.40;;;;;;;;;;5109262;28;20027;-63
2022/07/18 12:44:53;;;;;;;2.40;0.43;;;;;;;;;;5107815;28;20020;-63
2022/07/18 12:47:19;;;;;;;2.60;0.40;;;;;;;;;;5110072;28;20031;-63
2022/07/18 12:49:44;;;;;;;1.92;0.28;;;;;;;;;;5100051;28;20032;-63
2022/07/18 12:52:09;;;;;;;2.25;0.50;;;;;;;;;;5103392;28;20027;-63
2022/07/18 12:54:35;;;;;;;1.95;0.30;;;;;;;;;;5110067;28;20534;-63
2022/07/18 12:57:00;;;;;;;3.28;0.50;;;;;;;;;;5101737;28;20028;-63
2022/07/18 12:59:25;;;;;;;0.60;0.30;;;;;;;;;;5113137;28;20031;-63
2022/07/18 13:01:50;;;;;;;1.30;0.30;;;;;;;;;;5077972;28;20749;-63
2022/07/18 13:04:16;;;;;;;0.35;0.20;;;;;;;;;;5089015;28;20020;-63
2022/07/18 13:06:41;;;;;;;1.92;0.30;;;;;;;;;;5104993;28;20151;-64
2022/07/18 13:09:06;;;;;;;0.77;0.35;;;;;;;;;;5089752;28;20029;-65
2022/07/18 13:11:32;;;;;;;1.02;0.30;;;;;;;;;;5106331;28;20426;-64
2022/07/18 13:13:57;;;;;;;2.00;0.30;;;;;;;;;;5108272;28;20502;-65
2022/07/18 13:16:23;;;;;;;1.77;0.20;;;;;;;;;;5105832;28;20101;-64
2022/07/18 13:18:49;;;;;;;0.63;0.22;;;;;;;;;;5104999;28;20024;-62
2022/07/18 13:21:16;;;;;;;1.17;0.25;;;;;;;;;;5089158;28;20051;-63
2022/07/18 13:23:42;;;;;;;1.50;0.25;;;;;;;;;;5082823;28;20028;-62
2022/07/18 13:26:07;;;;;;;0.80;0.30;;;;;;;;;;5109263;28;20024;-64
2022/07/18 13:28:32;;;;;;;1.55;0.30;;;;;;;;;;5088188;28;20066;-64
2022/07/18 13:30:58;;;;;;;2.90;0.37;;;;;;;;;;5095509;28;20055;-64
2022/07/18 13:33:23;;;;;;;1.23;0.30;;;;;;;;;;5092713;28;20266;-64
2022/07/18 13:35:48;;;;;;;3.33;0.40;;;;;;;;;;5087923;28;20317;-64
2022/07/18 13:38:13;;;;;;;1.23;0.30;;;;;;;;;;5094433;28;20145;-63
2022/07/18 13:40:39;;;;;;;4.23;0.30;;;;;;;;;;5076842;28;20020;-64
2022/07/18 13:43:04;;;;;;;2.10;0.20;;;;;;;;;;5093086;28;20292;-63
2022/07/18 13:45:29;;;;;;;1.60;0.33;;;;;;;;;;5094582;28;20250;-64
2022/07/18 13:47:54;;;;;;;1.70;0.30;;;;;;;;;;5093046;28;20282;-64
2022/07/18 13:50:20;;;;;;;2.25;0.25;;;;;;;;;;5082518;28;20308;-63
2022/07/18 13:52:45;;;;;;;0.73;0.40;;;;;;;;;;5107243;28;20028;-64
2022/07/18 13:55:10;;;;;;;2.07;0.30;;;;;;;;;;5072470;28;20035;-63
2022/07/18 13:57:37;;;;;;;2.00;0.25;;;;;;;;;;5098264;28;20281;-64
2022/07/18 14:00:03;;;;;;;3.00;0.30;;;;;;;;;;5093365;28;20024;-64
2022/07/18 14:02:31;;;;;;;0.82;0.30;;;;;;;;;;5090702;28;20039;-62
2022/07/18 14:04:56;;;;;;;2.28;0.30;;;;;;;;;;5093606;28;20494;-65
2022/07/18 14:07:21;;;;;;;1.03;0.30;;;;;;;;;;5075383;28;20024;-63
2022/07/18 14:09:46;;;;;;;0.70;0.30;;;;;;;;;;5093867;28;20016;-63
2022/07/18 14:12:12;;;;;;;1.85;0.30;;;;;;;;;;5090557;28;20452;-63
2022/07/18 14:14:37;;;;;;;1.17;0.20;;;;;;;;;;5088835;28;20539;-63
2022/07/18 14:17:02;;;;;;;1.93;0.20;;;;;;;;;;5058764;28;20024;-63
2022/07/18 14:19:28;;;;;;;0.22;0.20;;;;;;;;;;5086603;28;20058;-62
2022/07/18 14:21:53;;;;;;;1.63;0.20;;;;;;;;;;5087627;28;20024;-63
2022/07/18 14:24:18;;;;;;;0.67;0.20;;;;;;;;;;5080888;28;20043;-63
2022/07/18 14:26:43;;;;;;;0.80;0.20;;;;;;;;;;5093250;28;20777;-63
2022/07/18 14:29:09;;;;;;;0.93;0.20;;;;;;;;;;5090299;28;20285;-63
2022/07/18 14:31:34;;;;;;;0.63;0.40;;;;;;;;;;5090616;28;20289;-63
2022/07/18 14:33:59;;;;;;;2.28;0.28;;;;;;;;;;5085951;28;20031;-63
2022/07/18 14:36:25;;;;;;;0.93;0.20;;;;;;;;;;5092936;28;20023;-63
2022/07/18 14:38:50;;;;;;;0.80;0.20;;;;;;;;;;5092424;28;20663;-62
2022/07/18 14:41:15;;;;;;;1.15;0.20;;;;;;;;;;5084641;28;20035;-63
2022/07/18 14:43:40;;;;;;;1.50;0.20;;;;;;;;;;5054688;28;20028;-63
2022/07/18 14:46:06;;;;;;;1.63;0.20;;;;;;;;;;5073662;28;20024;-63
2022/07/18 14:48:31;;;;;;;0.57;0.20;;;;;;;;;;5075947;28;20055;-63
2022/07/18 14:50:56;;;;;;;1.50;0.30;;;;;;;;;;5090879;28;20725;-63
2022/07/18 14:53:22;;;;;;;0.65;0.20;;;;;;;;;;5092399;28;20300;-63
2022/07/18 14:55:47;;;;;;;2.10;0.30;;;;;;;;;;5085414;28;20062;-63
2022/07/18 14:58:12;;;;;;;0.40;0.10;;;;;;;;;;5086929;28;20341;-63
2022/07/18 15:00:38;;;;;;;2.00;0.20;;;;;;;;;;5074881;28;20285;-63
2022/07/18 15:03:03;;;;;;;1.73;0.20;;;;;;;;;;5090294;28;20309;-63
2022/07/18 15:05:28;;;;;;;1.00;0.30;;;;;;;;;;5074407;28;20936;-63
2022/07/18 15:07:53;;;;;;;0.20;0.20;;;;;;;;;;5091167;28;20837;-63
2022/07/18 15:10:19;;;;;;;1.93;0.20;;;;;;;;;;5092885;28;20024;-63
2022/07/18 15:12:44;;;;;;;0.75;0.30;;;;;;;;;;5092912;28;20266;-63
2022/07/18 15:15:10;;;;;;;0.80;0.20;;;;;;;;;;5093197;28;20044;-63
2022/07/18 15:17:35;;;;;;;1.15;0.38;;;;;;;;;;5091624;28;20146;-61
2022/07/18 15:20:00;;;;;;;1.58;0.40;;;;;;;;;;5073894;28;20036;-63
2022/07/18 15:22:26;;;;;;;1.27;0.30;;;;;;;;;;5087587;28;20400;-63
2022/07/18 15:24:52;;;;;;;0.82;0.30;;;;;;;;;;5092343;28;20028;-63
2022/07/18 15:27:17;;;;;;;1.13;0.20;;;;;;;;;;5091047;28;20047;-63
2022/07/18 15:29:42;;;;;;;2.10;0.40;;;;;;;;;;5093076;28;20364;-63
2022/07/18 15:32:08;;;;;;;1.87;0.27;;;;;;;;;;5080891;28;20355;-64
2022/07/18 15:34:34;;;;;;;2.08;0.35;;;;;;;;;;5087320;28;20020;-64
2022/07/18 15:36:59;;;;;;;0.82;0.30;;;;;;;;;;5086822;28;20027;-63
2022/07/18 15:39:25;;;;;;;1.57;0.30;;;;;;;;;;5072437;28;20021;-63
2022/07/18 15:41:51;;;;;;;2.60;0.50;;;;;;;;;;5072303;28;20048;-63
2022/07/18 15:44:16;;;;;;;1.23;0.20;;;;;;;;;;5084773;28;20314;-64
2022/07/18 15:46:41;;;;;;;1.90;0.30;;;;;;;;;;5088373;28;20098;-64
2022/07/18 15:49:06;;;;;;;2.63;0.20;;;;;;;;;;5067688;28;20032;-63
2022/07/18 15:51:32;;;;;;;2.45;0.30;;;;;;;;;;5065300;28;20103;-63
2022/07/18 15:53:57;;;;;;;2.30;0.40;;;;;;;;;;5079713;28;20024;-64
2022/07/18 15:56:22;;;;;;;1.50;0.30;;;;;;;;;;5082594;28;20020;-63
2022/07/18 15:58:48;;;;;;;1.27;0.20;;;;;;;;;;5085660;28;20274;-63
2022/07/18 16:01:13;;;;;;;0.83;0.20;;;;;;;;;;5089592;28;20266;-63
2022/07/18 16:03:38;;;;;;;0.63;0.30;;;;;;;;;;5078239;28;20396;-63
2022/07/18 16:06:03;;;;;;;0.50;0.20;;;;;;;;;;5090855;28;20093;-63
2022/07/18 16:08:29;;;;;;;1.20;0.20;;;;;;;;;;5091877;28;20281;-63
2022/07/18 16:10:54;;;;;;;0.77;0.20;;;;;;;;;;5091259;28;20106;-63
2022/07/18 16:13:20;;;;;;;1.70;0.30;;;;;;;;;;5090990;28;20266;-63
2022/07/18 16:15:46;;;;;;;1.30;0.20;;;;;;;;;;5091713;28;20019;-63
2022/07/18 16:18:12;;;;;;;1.17;0.30;;;;;;;;;;5083055;28;20017;-63
2022/07/18 16:20:37;;;;;;;0.75;0.30;;;;;;;;;;5088265;28;20051;-63
2022/07/18 16:23:03;;;;;;;5.65;0.40;;;;;;;;;;5090836;28;20077;-63
2022/07/18 16:25:28;;;;;;;2.17;0.30;;;;;;;;;;5091752;28;20066;-63
2022/07/18 16:27:53;;;;;;;2.80;0.30;;;;;;;;;;5065680;28;20480;-63
2022/07/18 16:30:18;;;;;;;1.93;0.40;;;;;;;;;;5085071;28;20031;-63
2022/07/18 16:32:44;;;;;;;0.98;0.22;;;;;;;;;;5084025;28;20261;-63
2022/07/18 16:35:09;;;;;;;2.13;0.23;;;;;;;;;;5089697;28;20055;-62
2022/07/18 16:37:34;;;;;;;1.17;0.30;;;;;;;;;;5078399;28;20021;-63
2022/07/18 16:40:00;;;;;;;0.40;0.30;;;;;;;;;;5083721;28;20674;-63
2022/07/18 16:42:25;;;;;;;1.40;0.50;;;;;;;;;;5089802;28;20024;-63
2022/07/18 16:44:50;;;;;;;0.77;0.30;;;;;;;;;;5089788;28;20446;-63
2022/07/18 16:47:16;;;;;;;2.78;0.65;;;;;;;;;;5090827;28;20081;-63
2022/07/18 16:49:41;;;;;;;3.28;0.32;;;;;;;;;;5083458;28;20115;-63
2022/07/18 16:52:07;;;;;;;0.70;0.30;;;;;;;;;;5084544;28;20028;-64
2022/07/18 16:54:32;;;;;;;1.27;0.30;;;;;;;;;;5082718;28;20016;-63
2022/07/18 16:56:58;;;;;;;1.88;0.22;;;;;;;;;;5088870;28;20032;-63
2022/07/18 16:59:23;;;;;;;2.25;0.30;;;;;;;;;;5071543;28;20035;-63
2022/07/18 17:01:49;;;;;;;1.00;0.20;;;;;;;;;;5091510;28;20333;-62
2022/07/18 17:04:15;;;;;;;1.20;0.30;;;;;;;;;;5071695;28;20027;-63
2022/07/18 17:06:40;;;;;;;1.23;0.22;;;;;;;;;;5094458;28;20570;-63
2022/07/18 17:09:06;;;;;;;2.08;0.32;;;;;;;;;;5112152;28;20073;-63
2022/07/18 17:11:31;;;;;;;2.28;0.25;;;;;;;;;;5094209;28;20024;-62
2022/07/18 17:13:57;;;;;;;1.42;0.30;;;;;;;;;;5094255;28;20023;-62
2022/07/18 17:16:22;;;;;;;1.83;0.30;;;;;;;;;;5094779;28;20020;-61
2022/07/18 17:18:47;;;;;;;3.10;0.30;;;;;;;;;;5089606;28;20039;-62
2022/07/18 17:21:13;;;;;;;6.47;0.68;;;;;;;;;;5087940;28;20291;-63
2022/07/18 17:23:39;;;;;;;1.95;0.30;;;;;;;;;;5092723;28;20024;-62
2022/07/18 17:26:04;;;;;;;1.17;0.20;;;;;;;;;;5094905;28;20052;-59
2022/07/18 17:28:30;;;;;;;2.40;0.30;;;;;;;;;;5093685;28;20396;-61
2022/07/18 17:30:55;;;;;;;1.40;0.30;;;;;;;;;;5094136;28;20472;-62
2022/07/18 17:33:21;;;;;;;0.73;0.30;;;;;;;;;;5090078;28;20023;-61
2022/07/18 17:35:47;;;;;;;1.17;0.50;;;;;;;;;;5060140;28;20119;-62
2022/07/18 17:38:12;;;;;;;1.15;0.30;;;;;;;;;;5075452;28;20115;-62
2022/07/18 17:40:41;;;;;;;1.55;0.30;;;;;;;;;;5076878;28;20107;-63
2022/07/18 17:43:07;;;;;;;2.85;0.90;;;;;;;;;;5094192;28;20016;-63
2022/07/18 17:45:32;;;;;;;0.90;0.32;;;;;;;;;;5088910;28;20032;-62
2022/07/18 17:47:57;;;;;;;1.63;0.63;;;;;;;;;;5077283;28;20063;-63
2022/07/18 17:50:23;;;;;;;2.58;0.60;;;;;;;;;;5080072;28;20020;-63
2022/07/18 17:52:49;;;;;;;1.10;0.40;;;;;;;;;;5075064;28;20425;-62
2022/07/18 17:55:14;;;;;;;1.02;0.20;;;;;;;;;;5092594;28;20202;-64
2022/07/18 17:57:39;;;;;;;2.88;0.50;;;;;;;;;;5094066;28;20481;-63
2022/07/18 18:00:07;;;;;;;3.35;0.70;;;;;;;;;;5093854;28;20103;-63
2022/07/18 18:02:32;;;;;;;0.75;0.30;;;;;;;;;;5092734;28;20028;-63
2022/07/18 18:04:57;;;;;;;0.63;0.30;;;;;;;;;;5092587;28;20051;-63
2022/07/18 18:07:23;;;;;;;1.85;0.30;;;;;;;;;;5090124;28;20028;-63
2022/07/18 18:09:48;;;;;;;5.38;0.75;;;;;;;;;;5101731;28;20076;-63
2022/07/18 18:12:13;;;;;;;1.48;0.50;;;;;;;;;;5081411;28;20025;-63
2022/07/18 18:14:38;;;;;;;0.93;0.40;;;;;;;;;;5078794;28;20059;-64
2022/07/18 18:17:04;;;;;;;1.45;0.30;;;;;;;;;;5076593;28;20029;-63
2022/07/18 18:19:30;;;;;;;0.40;0.30;;;;;;;;;;5084992;28;20028;-63
2022/07/18 18:21:55;;;;;;;0.50;0.30;;;;;;;;;;5080877;28;20020;-63
2022/07/18 18:24:22;;;;;;;3.13;0.30;;;;;;;;;;5083575;28;20017;-62
2022/07/18 18:26:47;;;;;;;1.63;0.73;;;;;;;;;;5075205;28;20036;-63
2022/07/18 18:29:12;;;;;;;1.95;0.50;;;;;;;;;;5092744;28;20024;-63
2022/07/18 18:31:38;;;;;;;2.25;0.30;;;;;;;;;;5093973;28;20066;-63
2022/07/18 18:34:03;;;;;;;1.40;0.30;;;;;;;;;;5093555;28;20476;-63
2022/07/18 18:39:12;;;;;;;2.22;0.50;;;;;;;;;;5092795;28;20035;-62
2022/07/18 18:41:38;;;;;;;0.98;0.40;;;;;;;;;;5096361;28;20040;-62
2022/07/18 18:44:03;;;;;;;3.55;0.52;;;;;;;;;;5089398;28;20030;-62
2022/07/18 18:46:29;;;;;;;1.27;0.40;;;;;;;;;;5082588;28;20019;-63
2022/07/18 18:48:55;;;;;;;1.08;0.60;;;;;;;;;;5066225;28;20034;-63
2022/07/18 18:51:20;;;;;;;1.98;0.40;;;;;;;;;;5080620;28;20051;-62
2022/07/18 18:53:45;;;;;;;1.65;0.40;;;;;;;;;;5082442;28;20448;-63
2022/07/18 18:56:10;;;;;;;2.38;1.20;;;;;;;;;;5093554;28;20074;-63
2022/07/18 18:58:36;;;;;;;1.83;0.47;;;;;;;;;;5090933;28;20395;-63
2022/07/18 19:01:01;;;;;;;2.30;0.60;;;;;;;;;;5093370;28;20024;-62
2022/07/18 19:03:26;;;;;;;2.65;0.60;;;;;;;;;;5089511;28;20049;-63
2022/07/18 19:05:52;;;;;;;1.55;0.60;;;;;;;;;;5092636;28;20467;-63
2022/07/18 19:08:17;;;;;;;2.58;0.43;;;;;;;;;;5093832;28;20172;-63
2022/07/18 19:10:43;;;;;;;2.10;0.80;;;;;;;;;;5092010;28;20023;-63
2022/07/18 19:13:08;;;;;;;3.22;0.75;;;;;;;;;;5105157;28;20031;-63
2022/07/18 19:15:33;;;;;;;1.08;0.80;;;;;;;;;;5074928;28;20020;-62
2022/07/18 19:17:58;;;;;;;1.00;0.80;;;;;;;;;;5110729;28;20374;-63
2022/07/18 19:20:25;;;;;;;1.38;0.65;;;;;;;;;;5076316;28;20442;-63
2022/07/18 19:22:50;;;;;;;3.13;0.65;;;;;;;;;;5071713;28;20028;-63
2022/07/18 19:25:19;;;;;;;2.60;0.50;;;;;;;;;;5072827;28;20028;-63
2022/07/18 19:27:44;;;;;;;0.90;0.47;;;;;;;;;;5079258;28;20024;-63
2022/07/18 19:30:10;;;;;;;2.65;0.90;;;;;;;;;;5089451;28;20190;-63
2022/07/18 19:32:35;;;;;;;1.98;0.70;;;;;;;;;;5074021;28;20024;-64
2022/07/18 19:35:00;;;;;;;6.10;1.70;;;;;;;;;;5105501;28;20381;-63
2022/07/18 19:37:26;;;;;;;2.35;1.60;;;;;;;;;;5083454;28;20024;-63
2022/07/18 19:39:51;;;;;;;2.22;1.20;;;;;;;;;;5106285;28;20012;-63
2022/07/18 19:42:16;;;;;;;1.88;0.75;;;;;;;;;;5092960;28;20396;-63
2022/07/18 19:44:41;;;;;;;2.72;0.70;;;;;;;;;;5103751;28;20035;-63
2022/07/18 19:47:07;;;;;;;4.10;2.83;;;;;;;;;;5077108;28;20042;-64
2022/07/18 19:49:32;;;;;;;2.50;1.15;;;;;;;;;;5077238;28;20032;-65
2022/07/18 19:51:57;;;;;;;3.00;1.83;;;;;;;;;;5050829;28;20048;-64
2022/07/18 19:54:22;;;;;;;3.95;2.45;;;;;;;;;;5091284;28;20155;-64
2022/07/18 19:56:48;;;;;;;1.88;1.20;;;;;;;;;;5090810;28;20479;-63
2022/07/18 19:59:13;;;;;;;2.47;0.95;;;;;;;;;;5096499;28;20028;-63
2022/07/18 20:01:38;;;;;;;1.42;0.85;;;;;;;;;;5084316;28;20024;-64
2022/07/18 20:04:04;;;;;;;3.42;1.20;;;;;;;;;;5083436;28;20066;-64
2022/07/18 20:06:29;;;;;;;4.05;0.75;;;;;;;;;;5083816;28;20261;-64
2022/07/18 20:08:54;;;;;;;4.45;1.00;;;;;;;;;;5087277;28;20107;-63
2022/07/18 20:11:19;;;;;;;3.53;1.50;;;;;;;;;;5095375;28;20086;-64
2022/07/18 20:13:45;;;;;;;2.05;0.80;;;;;;;;;;5095606;28;20030;-64
2022/07/18 20:16:10;;;;;;;0.90;0.90;;;;;;;;;;5095610;28;20104;-63
2022/07/18 20:18:35;;;;;;;1.75;0.98;;;;;;;;;;5087742;28;20079;-64
2022/07/18 20:21:01;;;;;;;2.05;0.90;;;;;;;;;;5081344;28;20138;-64
2022/07/18 20:23:26;;;;;;;2.40;1.10;;;;;;;;;;5088917;28;20103;-65
2022/07/18 20:25:51;;;;;;;1.55;0.70;;;;;;;;;;5089961;28;20052;-65
2022/07/18 20:28:16;;;;;;;1.30;0.80;;;;;;;;;;5094713;28;20055;-65
2022/07/18 20:30:42;;;;;;;2.33;0.60;;;;;;;;;;5096300;28;20476;-64
2022/07/18 20:33:07;;;;;;;3.35;0.70;;;;;;;;;;5086434;28;20108;-65
2022/07/18 20:35:36;;;;;;;3.38;0.82;;;;;;;;;;5088345;28;20029;-65
2022/07/18 20:38:02;;;;;;;1.13;0.50;;;;;;;;;;5085664;28;20027;-65
2022/07/18 20:40:27;;;;;;;1.25;0.65;;;;;;;;;;5092364;28;20016;-65
2022/07/18 20:42:53;;;;;;;2.03;0.50;;;;;;;;;;5062466;28;20027;-64
2022/07/18 20:45:20;;;;;;;1.95;0.60;;;;;;;;;;5086644;28;20059;-65
2022/07/18 20:47:45;;;;;;;0.90;0.50;;;;;;;;;;5091169;28;20024;-65
2022/07/18 20:50:11;;;;;;;2.47;0.65;;;;;;;;;;5086192;28;20032;-65
2022/07/18 20:52:36;;;;;;;2.60;0.73;;;;;;;;;;5095319;28;20099;-65
2022/07/18 20:55:01;;;;;;;0.95;0.52;;;;;;;;;;5094292;28;20028;-64
2022/07/18 20:57:27;;;;;;;2.08;0.40;;;;;;;;;;5092415;28;20135;-65
2022/07/18 20:59:52;;;;;;;2.63;0.63;;;;;;;;;;5086771;28;20035;-65
2022/07/18 21:02:18;;;;;;;1.70;0.55;;;;;;;;;;5089383;28;20031;-63
2022/07/18 21:04:43;;;;;;;3.92;0.90;;;;;;;;;;5085275;28;20481;-64
2022/07/18 21:07:08;;;;;;;1.83;0.63;;;;;;;;;;5089909;28;20106;-64
2022/07/18 21:09:34;;;;;;;2.95;0.63;;;;;;;;;;5088710;28;20039;-64
2022/07/18 21:11:59;;;;;;;4.65;0.98;;;;;;;;;;5112132;28;20039;-64
2022/07/18 21:17:08;;;;;;;1.70;0.40;;;;;;;;;;5094873;28;20024;-64
2022/07/18 21:19:33;;;;;;;1.25;0.60;;;;;;;;;;5077499;28;20430;-64
2022/07/18 21:21:58;;;;;;;1.17;0.50;;;;;;;;;;5093578;28;20032;-65
2022/07/18 21:24:24;;;;;;;2.63;0.50;;;;;;;;;;5093892;28;20464;-64
2022/07/18 21:26:49;;;;;;;1.92;0.50;;;;;;;;;;5076386;28;20605;-64
2022/07/18 21:29:14;;;;;;;2.28;0.63;;;;;;;;;;5074045;28;20028;-64
2022/07/18 21:31:40;;;;;;;1.80;0.45;;;;;;;;;;5091848;28;20118;-64
2022/07/18 21:34:05;;;;;;;2.40;0.52;;;;;;;;;;5094545;28;20476;-64
2022/07/18 21:36:31;;;;;;;2.92;0.50;;;;;;;;;;5090635;28;20028;-63
2022/07/18 21:38:56;;;;;;;2.88;0.73;;;;;;;;;;5094291;28;20483;-64
2022/07/18 21:41:22;;;;;;;1.30;0.60;;;;;;;;;;5093677;28;20468;-64
2022/07/18 21:43:47;;;;;;;2.42;0.60;;;;;;;;;;5076176;28;20384;-64
2022/07/18 21:46:12;;;;;;;0.73;0.40;;;;;;;;;;5074281;28;20017;-64
2022/07/18 21:48:37;;;;;;;0.75;0.50;;;;;;;;;;5067278;28;20051;-64
2022/07/18 21:51:03;;;;;;;1.02;0.50;;;;;;;;;;5092563;28;20060;-64
2022/07/18 21:53:28;;;;;;;1.40;0.60;;;;;;;;;;5093654;28;20020;-64
2022/07/18 21:55:53;;;;;;;1.13;0.60;;;;;;;;;;5078081;28;20024;-64
2022/07/18 21:58:19;;;;;;;3.78;0.70;;;;;;;;;;5080864;28;20307;-63
2022/07/18 22:00:44;;;;;;;1.15;0.60;;;;;;;;;;5093382;28;20031;-64
2022/07/18 22:03:09;;;;;;;2.63;0.60;;;;;;;;;;5093315;28;20089;-64
2022/07/18 22:05:34;;;;;;;3.08;0.68;;;;;;;;;;5093990;28;20071;-64
2022/07/18 22:08:00;;;;;;;1.35;0.50;;;;;;;;;;5076788;28;20550;-64
2022/07/18 22:10:25;;;;;;;2.53;0.57;;;;;;;;;;5087082;28;20049;-64
2022/07/18 22:12:50;;;;;;;1.50;0.40;;;;;;;;;;5079677;28;20027;-63
2022/07/18 22:15:16;;;;;;;1.40;0.60;;;;;;;;;;5090848;28;20070;-64
2022/07/18 22:17:41;;;;;;;4.10;0.60;;;;;;;;;;5092129;28;20391;-64
2022/07/18 22:20:07;;;;;;;1.60;0.63;;;;;;;;;;5088749;28;20044;-64
2022/07/18 22:22:32;;;;;;;2.08;0.75;;;;;;;;;;5093757;28;20543;-64
2022/07/18 22:24:57;;;;;;;2.25;0.60;;;;;;;;;;5075525;28;20031;-65
2022/07/18 22:27:23;;;;;;;2.85;0.70;;;;;;;;;;5095284;28;20027;-65
2022/07/18 22:29:48;;;;;;;2.47;0.50;;;;;;;;;;5088460;28;20033;-64
2022/07/18 22:32:14;;;;;;;0.75;0.52;;;;;;;;;;5086356;28;20021;-65
2022/07/18 22:34:39;;;;;;;1.70;0.52;;;;;;;;;;5084401;28;20461;-65
2022/07/18 22:37:04;;;;;;;1.23;0.50;;;;;;;;;;5067864;28;20032;-65
2022/07/18 22:39:29;;;;;;;3.03;1.40;;;;;;;;;;5073240;28;20032;-64
2022/07/18 22:41:55;;;;;;;8.75;5.40;;;;;;;;;;5089575;28;20039;-64
2022/07/18 22:44:20;;;;;;;8.02;4.25;;;;;;;;;;5089106;28;20089;-65
2022/07/18 22:46:45;;;;;;;5.28;3.67;;;;;;;;;;5073823;28;20110;-64
2022/07/18 22:49:11;;;;;;;7.45;3.88;;;;;;;;;;5088202;28;20016;-65
2022/07/18 22:51:36;;;;;;;6.55;3.22;;;;;;;;;;5090825;28;20070;-65
2022/07/18 22:54:01;;;;;;;5.60;3.42;;;;;;;;;;5075527;28;20020;-65
2022/07/18 22:56:27;;;;;;;6.28;4.07;;;;;;;;;;5094683;28;20020;-65
2022/07/18 22:58:52;;;;;;;7.40;4.25;;;;;;;;;;5093039;28;20024;-64
2022/07/18 23:01:17;;;;;;;7.10;3.63;;;;;;;;;;5091305;28;20395;-65
2022/07/18 23:03:42;;;;;;;4.25;2.55;;;;;;;;;;5092260;28;20024;-64
2022/07/18 23:06:08;;;;;;;4.20;1.73;;;;;;;;;;5091691;28;20586;-65
2022/07/18 23:08:33;;;;;;;2.65;1.10;;;;;;;;;;5089734;28;20081;-64
2022/07/18 23:10:59;;;;;;;2.38;0.95;;;;;;;;;;5092561;28;20482;-65
2022/07/18 23:13:24;;;;;;;1.95;0.77;;;;;;;;;;5091816;28;20024;-64
2022/07/18 23:15:49;;;;;;;3.30;1.10;;;;;;;;;;5092546;28;20430;-65
2022/07/18 23:18:15;;;;;;;2.42;1.13;;;;;;;;;;5077042;28;20040;-65
2022/07/18 23:20:40;;;;;;;3.03;1.00;;;;;;;;;;5089251;28;20079;-64
2022/07/18 23:23:06;;;;;;;3.33;1.00;;;;;;;;;;5091221;28;20031;-65
2022/07/18 23:25:31;;;;;;;3.13;1.10;;;;;;;;;;5092832;28;20491;-65
2022/07/18 23:27:56;;;;;;;2.70;1.40;;;;;;;;;;5091572;28;20062;-65
2022/07/18 23:30:22;;;;;;;3.55;2.22;;;;;;;;;;5092690;28;20031;-64
2022/07/18 23:32:47;;;;;;;5.05;2.92;;;;;;;;;;5091420;28;20483;-65
2022/07/18 23:35:13;;;;;;;3.60;2.95;;;;;;;;;;5092108;28;20100;-64
2022/07/18 23:37:39;;;;;;;4.22;2.90;;;;;;;;;;5091230;28;20604;-65
2022/07/18 23:40:05;;;;;;;4.32;2.13;;;;;;;;;;5093242;28;20487;-65
2022/07/18 23:42:31;;;;;;;4.25;2.42;;;;;;;;;;5092738;28;20028;-64
2022/07/18 23:44:56;;;;;;;5.55;4.57;;;;;;;;;;5090536;28;20020;-65
2022/07/18 23:47:22;;;;;;;4.55;3.65;;;;;;;;;;5092855;28;20020;-64
2022/07/18 23:49:47;;;;;;;7.43;4.60;;;;;;;;;;5087238;28;20434;-64
2022/07/18 23:52:13;;;;;;;5.70;4.97;;;;;;;;;;5091628;28;20016;-65
2022/07/18 23:54:42;;;;;;;7.53;5.25;;;;;;;;;;5089474;28;20479;-65
2022/07/18 23:57:07;;;;;;;7.47;5.30;;;;;;;;;;5092098;28;20031;-65
2022/07/18 23:59:33;;;;;;;7.93;4.72;;;;;;;;;;5087177;28;20094;-65
